Time;durP1;ratioP1;P1;durP2;ratioP2;P2;SDS_P1;SDS_P2;PMS_P1;PMS_P2;Temp;Humidity;BMP_temperature;BMP_pressure;BME280_temperature;BME280_humidity;BME280_pressure;Samples;Min_cycle;Max_cycle;Signal;HPM_P1;HPM_P2
2023/05/30 00:01:48;;;;;;;10.48;3.45;;;11.40;99.90;;;;;;5012459;28;20200;-68
2023/05/30 00:04:14;;;;;;;10.48;3.70;;;11.40;99.90;;;;;;5012271;28;20620;-68
2023/05/30 00:06:40;;;;;;;11.23;4.13;;;11.40;99.90;;;;;;4992609;28;20181;-68
2023/05/30 00:09:05;;;;;;;8.38;3.20;;;11.40;99.90;;;;;;4995806;28;20314;-68
2023/05/30 00:11:31;;;;;;;8.73;3.60;;;11.40;99.90;;;;;;4995520;28;20232;-68
2023/05/30 00:13:58;;;;;;;11.38;3.67;;;11.30;99.90;;;;;;4996964;28;20590;-68
2023/05/30 00:16:24;;;;;;;11.77;3.47;;;11.20;99.90;;;;;;4996826;28;20260;-68
2023/05/30 00:18:52;;;;;;;5.82;3.22;;;11.20;99.90;;;;;;4995583;28;20188;-68
2023/05/30 00:21:18;;;;;;;12.15;3.63;;;11.20;99.90;;;;;;4996730;28;20211;-68
2023/05/30 00:23:48;;;;;;;13.82;3.97;;;11.20;99.90;;;;;;4995674;28;20522;-68
2023/05/30 00:26:15;;;;;;;9.73;3.70;;;11.20;99.90;;;;;;4995506;28;20180;-68
2023/05/30 00:28:42;;;;;;;10.48;4.32;;;11.20;99.90;;;;;;4996812;28;20172;-68
2023/05/30 00:31:08;;;;;;;13.38;5.07;;;11.20;99.90;;;;;;4995392;28;20703;-68
2023/05/30 00:33:34;;;;;;;10.38;3.78;;;11.20;99.90;;;;;;4996570;28;20280;-68
2023/05/30 00:36:00;;;;;;;8.90;3.42;;;11.10;99.90;;;;;;4990971;28;20246;-68
2023/05/30 00:38:26;;;;;;;8.48;3.85;;;11.10;99.90;;;;;;4996144;28;20645;-68
2023/05/30 00:40:52;;;;;;;8.63;3.25;;;11.10;99.90;;;;;;4996563;28;20211;-68
2023/05/30 00:43:18;;;;;;;9.23;3.92;;;11.00;99.90;;;;;;4996480;28;20184;-68
2023/05/30 00:45:45;;;;;;;12.13;3.65;;;11.00;99.90;;;;;;4997112;28;20179;-68
2023/05/30 00:48:11;;;;;;;9.25;4.05;;;11.00;99.90;;;;;;4997033;28;20187;-68
2023/05/30 00:50:38;;;;;;;8.43;3.40;;;11.00;99.90;;;;;;4996632;28;20189;-68
2023/05/30 00:53:05;;;;;;;8.98;3.33;;;10.90;99.90;;;;;;4995237;28;20203;-68
2023/05/30 00:55:32;;;;;;;8.50;3.63;;;10.90;99.90;;;;;;4996878;28;20173;-68
2023/05/30 00:57:57;;;;;;;10.77;3.70;;;10.80;99.90;;;;;;4996261;28;20161;-68
2023/05/30 01:00:26;;;;;;;8.68;3.60;;;10.80;99.90;;;;;;4996123;28;20192;-68
2023/05/30 01:02:59;;;;;;;10.27;4.28;;;10.70;99.90;;;;;;4996213;28;20183;-68
2023/05/30 01:05:26;;;;;;;10.52;4.00;;;10.60;99.90;;;;;;4990427;28;20184;-68
2023/05/30 01:07:53;;;;;;;10.88;4.40;;;10.60;99.90;;;;;;4996483;28;20208;-68
2023/05/30 01:10:20;;;;;;;12.60;4.28;;;10.60;99.90;;;;;;4994637;28;20223;-68
2023/05/30 01:13:15;;;;;;;10.60;3.83;;;10.60;99.90;;;;;;4995743;28;20677;-67
2023/05/30 01:15:49;;;;;;;10.93;3.83;;;10.60;99.90;;;;;;4994871;28;20245;-67
2023/05/30 01:18:27;;;;;;;12.67;4.17;;;10.50;99.90;;;;;;4996541;28;20156;-68
2023/05/30 01:20:59;;;;;;;11.45;3.80;;;10.50;99.90;;;;;;4995849;28;20212;-68
2023/05/30 01:24:00;;;;;;;12.60;3.95;;;10.50;99.90;;;;;;4994570;28;20263;-68
2023/05/30 01:26:43;;;;;;;9.32;3.97;;;10.40;99.90;;;;;;4995687;28;20239;-67
2023/05/30 01:29:14;;;;;;;9.03;3.70;;;10.40;99.90;;;;;;4994389;28;20204;-68
2023/05/30 01:31:41;;;;;;;11.98;4.07;;;10.40;99.90;;;;;;4995551;28;20197;-68
2023/05/30 01:34:07;;;;;;;11.53;3.90;;;10.30;99.90;;;;;;4995892;28;20173;-68
2023/05/30 01:36:33;;;;;;;11.07;3.58;;;10.30;99.90;;;;;;4991063;28;20180;-68
2023/05/30 01:38:59;;;;;;;6.93;3.47;;;10.30;99.90;;;;;;4996171;28;20169;-68
2023/05/30 01:41:53;;;;;;;12.30;4.57;;;10.40;99.90;;;;;;5010370;28;20203;-67
2023/05/30 01:44:36;;;;;;;10.90;3.73;;;10.40;99.90;;;;;;4959248;28;20184;-68
2023/05/30 01:47:20;;;;;;;12.50;3.90;;;10.40;99.90;;;;;;4995755;28;20625;-67
2023/05/30 01:50:10;;;;;;;7.68;3.53;;;10.40;99.90;;;;;;4993064;28;20204;-67
2023/05/30 01:52:41;;;;;;;15.43;4.83;;;10.40;99.90;;;;;;4995519;28;20223;-68
2023/05/30 01:55:10;;;;;;;9.30;4.30;;;10.30;99.90;;;;;;4994157;28;20263;-68
2023/05/30 01:57:49;;;;;;;9.07;3.60;;;10.30;99.90;;;;;;4995055;28;20210;-67
2023/05/30 02:00:16;;;;;;;9.83;4.00;;;10.20;99.90;;;;;;4993837;28;20204;-68
2023/05/30 02:02:43;;;;;;;9.93;4.37;;;10.20;99.90;;;;;;4994380;28;20192;-67
2023/05/30 02:05:10;;;;;;;14.33;4.40;;;10.10;99.90;;;;;;4991648;28;20211;-67
2023/05/30 02:07:36;;;;;;;13.23;4.20;;;10.10;99.90;;;;;;4994275;28;20184;-67
2023/05/30 02:10:02;;;;;;;13.43;4.50;;;10.10;99.90;;;;;;4994245;28;20578;-67
2023/05/30 02:12:28;;;;;;;8.93;4.17;;;10.00;99.90;;;;;;4994122;28;20200;-68
2023/05/30 02:14:54;;;;;;;13.20;4.00;;;10.00;99.90;;;;;;4995687;28;20184;-68
2023/05/30 02:17:21;;;;;;;13.18;4.60;;;10.10;99.90;;;;;;4994792;28;20176;-68
2023/05/30 02:19:50;;;;;;;8.70;4.40;;;10.10;99.90;;;;;;4994704;28;20764;-68
2023/05/30 02:22:17;;;;;;;17.60;4.60;;;10.10;99.90;;;;;;4994747;28;20183;-68
2023/05/30 02:24:43;;;;;;;18.20;4.80;;;10.10;99.90;;;;;;4993548;28;20184;-68
2023/05/30 02:27:09;;;;;;;12.73;4.30;;;10.10;99.90;;;;;;5009531;28;20185;-68
2023/05/30 02:29:35;;;;;;;9.98;4.57;;;10.10;99.90;;;;;;5009623;28;20188;-68
2023/05/30 02:32:01;;;;;;;15.27;5.27;;;10.10;99.90;;;;;;4994700;28;20283;-70
2023/05/30 02:34:27;;;;;;;13.57;5.18;;;10.20;99.90;;;;;;4994168;28;20588;-71
2023/05/30 02:36:53;;;;;;;16.23;5.30;;;10.20;99.90;;;;;;4989604;28;20673;-69
2023/05/30 02:39:18;;;;;;;19.02;5.75;;;10.30;99.90;;;;;;4994651;28;20218;-69
2023/05/30 02:41:44;;;;;;;13.57;4.80;;;10.30;99.90;;;;;;4993082;28;20192;-69
2023/05/30 02:44:10;;;;;;;13.87;5.00;;;10.30;99.90;;;;;;4995662;28;20621;-70
2023/05/30 02:46:36;;;;;;;9.93;5.33;;;10.30;99.90;;;;;;4994442;28;20172;-70
2023/05/30 02:49:03;;;;;;;14.98;5.05;;;10.30;99.90;;;;;;4994547;28;20176;-70
2023/05/30 02:51:29;;;;;;;13.53;6.30;;;10.20;99.90;;;;;;4994307;28;20192;-70
2023/05/30 02:53:55;;;;;;;14.53;5.57;;;10.30;99.90;;;;;;4993011;28;20202;-69
2023/05/30 02:56:24;;;;;;;22.70;5.63;;;10.30;99.90;;;;;;4992701;28;20207;-70
2023/05/30 02:58:52;;;;;;;17.23;5.20;;;10.30;99.90;;;;;;4994416;28;20586;-69
2023/05/30 03:01:18;;;;;;;18.43;5.87;;;10.20;99.90;;;;;;4993870;28;20224;-70
2023/05/30 03:03:44;;;;;;;18.53;5.90;;;10.20;99.90;;;;;;4992915;28;20185;-70
2023/05/30 03:06:10;;;;;;;15.30;6.33;;;10.20;99.90;;;;;;4989535;28;20184;-70
2023/05/30 03:08:36;;;;;;;16.13;5.70;;;10.20;99.90;;;;;;4994102;28;20187;-70
2023/05/30 03:11:02;;;;;;;25.27;7.43;;;10.20;99.90;;;;;;4994167;28;20199;-70
2023/05/30 03:13:27;;;;;;;15.00;6.50;;;10.20;99.90;;;;;;4993972;28;20625;-69
2023/05/30 03:15:53;;;;;;;18.43;6.60;;;10.20;99.90;;;;;;4995497;28;20646;-69
2023/05/30 03:18:19;;;;;;;16.00;6.27;;;10.20;99.90;;;;;;4992866;28;20180;-70
2023/05/30 03:20:45;;;;;;;16.70;6.30;;;10.20;99.90;;;;;;4994719;28;20566;-69
2023/05/30 03:23:10;;;;;;;18.67;6.60;;;10.20;99.90;;;;;;4994035;28;20196;-67
2023/05/30 03:25:36;;;;;;;20.07;6.60;;;10.20;99.90;;;;;;4994219;28;20200;-68
2023/05/30 03:28:06;;;;;;;17.60;7.57;;;10.20;99.90;;;;;;4993972;28;20240;-67
2023/05/30 03:30:32;;;;;;;19.53;7.53;;;10.20;99.90;;;;;;4993761;28;20200;-67
2023/05/30 03:32:59;;;;;;;17.63;7.00;;;10.20;99.90;;;;;;4993739;28;20211;-67
2023/05/30 03:35:24;;;;;;;19.07;7.43;;;10.20;99.90;;;;;;4989547;28;20188;-68
2023/05/30 03:37:50;;;;;;;17.47;7.57;;;10.20;99.90;;;;;;4992564;28;20181;-69
2023/05/30 03:40:17;;;;;;;14.73;6.63;;;10.20;99.90;;;;;;4992662;28;20200;-68
2023/05/30 03:42:43;;;;;;;18.13;6.73;;;10.20;99.90;;;;;;4993692;28;20187;-69
2023/05/30 03:45:10;;;;;;;17.07;7.33;;;10.20;99.90;;;;;;4994043;28;20180;-74
2023/05/30 03:47:35;;;;;;;16.50;7.30;;;10.10;99.90;;;;;;4993803;28;20191;-69
2023/05/30 03:50:02;;;;;;;18.87;6.77;;;10.20;99.90;;;;;;4993864;28;20677;-69
2023/05/30 03:52:28;;;;;;;20.67;7.07;;;10.20;99.90;;;;;;4993607;28;20216;-69
2023/05/30 03:54:54;;;;;;;17.13;6.63;;;10.30;99.90;;;;;;4992483;28;20210;-69
2023/05/30 03:57:19;;;;;;;14.90;6.67;;;10.30;99.90;;;;;;4992134;28;20253;-69
2023/05/30 03:59:45;;;;;;;15.17;7.00;;;10.40;99.90;;;;;;4992665;28;20211;-69
2023/05/30 04:02:11;;;;;;;18.33;6.93;;;10.30;99.90;;;;;;4992605;28;20191;-70
2023/05/30 04:04:37;;;;;;;15.70;6.67;;;10.30;99.90;;;;;;4991894;28;20190;-69
2023/05/30 04:07:03;;;;;;;19.07;7.20;;;10.20;99.90;;;;;;4991016;28;20189;-69
2023/05/30 04:09:29;;;;;;;23.50;7.50;;;10.30;99.90;;;;;;4993428;28;20681;-69
2023/05/30 04:11:55;;;;;;;15.07;6.93;;;10.30;99.90;;;;;;4993920;28;20208;-69
2023/05/30 04:14:20;;;;;;;15.47;6.80;;;10.30;99.90;;;;;;4997243;28;20176;-69
2023/05/30 04:16:46;;;;;;;16.50;7.13;;;10.40;99.90;;;;;;4995618;28;20177;-69
2023/05/30 04:19:12;;;;;;;20.23;7.20;;;10.40;99.90;;;;;;4996979;28;20185;-69
2023/05/30 04:21:37;;;;;;;16.17;6.60;;;10.50;99.90;;;;;;4996774;28;20204;-70
2023/05/30 04:24:04;;;;;;;18.73;7.00;;;10.50;99.90;;;;;;4995533;28;20563;-69
2023/05/30 04:26:31;;;;;;;19.13;7.10;;;10.50;99.90;;;;;;4996731;28;20172;-69
2023/05/30 04:28:56;;;;;;;25.63;7.20;;;10.50;99.90;;;;;;4997252;28;20172;-69
2023/05/30 04:31:24;;;;;;;17.63;7.63;;;10.50;99.90;;;;;;4996654;28;20256;-70
2023/05/30 04:33:51;;;;;;;14.27;6.60;;;10.50;99.90;;;;;;4996557;28;20211;-69
2023/05/30 04:36:18;;;;;;;14.23;6.90;;;10.50;99.90;;;;;;4992102;28;20246;-70
2023/05/30 04:38:45;;;;;;;26.00;8.30;;;10.50;99.90;;;;;;4995420;28;20187;-69
2023/05/30 04:41:11;;;;;;;23.50;7.07;;;10.40;99.90;;;;;;4996546;28;20200;-69
2023/05/30 04:43:37;;;;;;;14.63;7.57;;;10.40;99.90;;;;;;4996362;28;20587;-70
2023/05/30 04:46:04;;;;;;;18.53;7.37;;;10.40;99.90;;;;;;4995145;28;20660;-70
2023/05/30 04:48:30;;;;;;;17.93;7.70;;;10.50;99.90;;;;;;5011549;28;20191;-69
2023/05/30 04:50:59;;;;;;;13.90;7.00;;;10.50;99.90;;;;;;4996219;28;20211;-69
2023/05/30 04:53:25;;;;;;;19.20;8.13;;;10.60;99.90;;;;;;5011273;28;20243;-69
2023/05/30 04:55:50;;;;;;;23.53;7.50;;;10.50;99.90;;;;;;5011213;28;20224;-70
2023/05/30 04:58:17;;;;;;;13.03;7.20;;;10.60;99.90;;;;;;5011157;28;20187;-70
2023/05/30 05:00:43;;;;;;;22.43;7.97;;;10.60;99.90;;;;;;5011154;28;20227;-70
2023/05/30 05:03:09;;;;;;;22.67;7.63;;;10.60;99.90;;;;;;4996052;28;20741;-70
2023/05/30 05:05:35;;;;;;;17.20;7.07;;;10.70;99.90;;;;;;4991675;28;20661;-69
2023/05/30 05:08:01;;;;;;;15.20;7.17;;;10.80;99.90;;;;;;4994736;28;20633;-70
2023/05/30 05:10:27;;;;;;;24.65;7.40;;;10.80;99.90;;;;;;4994648;28;20255;-70
2023/05/30 05:12:53;;;;;;;14.63;7.03;;;10.90;99.90;;;;;;4996060;28;20200;-70
2023/05/30 05:15:19;;;;;;;25.13;7.13;;;11.00;99.90;;;;;;5011022;28;20239;-70
2023/05/30 05:17:45;;;;;;;16.17;7.03;;;10.90;99.90;;;;;;4994807;28;20633;-70
2023/05/30 05:20:12;;;;;;;15.83;6.77;;;10.90;99.90;;;;;;5010892;28;20207;-70
2023/05/30 05:22:37;;;;;;;20.03;7.97;;;11.00;99.90;;;;;;4994730;28;20233;-70
2023/05/30 05:25:04;;;;;;;25.83;8.17;;;11.10;99.90;;;;;;4994501;28;20184;-70
2023/05/30 05:27:30;;;;;;;18.80;7.97;;;11.10;99.90;;;;;;4994424;28;20180;-70
2023/05/30 05:29:56;;;;;;;19.23;7.40;;;11.20;99.90;;;;;;4995413;28;20196;-69
2023/05/30 05:32:22;;;;;;;16.07;8.23;;;11.20;99.90;;;;;;4995846;28;20226;-70
2023/05/30 05:34:49;;;;;;;16.60;8.03;;;11.10;99.90;;;;;;4992314;28;20630;-69
2023/05/30 05:37:15;;;;;;;20.47;9.17;;;11.10;99.90;;;;;;4994540;28;20200;-70
2023/05/30 05:39:41;;;;;;;19.77;8.47;;;11.00;99.90;;;;;;5010409;28;20211;-70
2023/05/30 05:42:06;;;;;;;26.40;9.35;;;11.00;99.90;;;;;;4993995;28;20278;-70
2023/05/30 05:44:32;;;;;;;20.40;9.43;;;11.00;99.90;;;;;;4995396;28;20183;-72
2023/05/30 05:46:58;;;;;;;16.73;9.07;;;11.00;99.90;;;;;;4995528;28;20247;-70
2023/05/30 05:49:24;;;;;;;23.60;10.27;;;11.00;99.90;;;;;;4993883;28;20231;-70
2023/05/30 05:51:49;;;;;;;16.83;9.35;;;11.00;99.90;;;;;;4995157;28;20189;-70
2023/05/30 05:54:16;;;;;;;17.80;9.63;;;11.10;99.90;;;;;;5010121;28;20184;-70
2023/05/30 05:56:43;;;;;;;26.73;8.90;;;11.10;99.90;;;;;;4995100;28;20195;-70
2023/05/30 05:59:08;;;;;;;19.50;8.23;;;11.00;99.90;;;;;;4993769;28;20195;-70
2023/05/30 06:01:34;;;;;;;19.83;8.50;;;11.00;99.90;;;;;;4994916;28;20200;-70
2023/05/30 06:04:10;;;;;;;20.57;9.17;;;11.00;99.90;;;;;;4995330;28;20185;-70
2023/05/30 06:06:36;;;;;;;20.83;8.33;;;11.10;99.90;;;;;;4990516;28;20635;-70
2023/05/30 06:09:02;;;;;;;21.80;9.07;;;11.10;99.90;;;;;;4995250;28;20197;-70
2023/05/30 06:11:28;;;;;;;17.17;9.47;;;11.20;99.90;;;;;;4995082;28;20196;-70
2023/05/30 06:13:53;;;;;;;21.03;10.30;;;11.20;99.90;;;;;;5009824;28;20200;-70
2023/05/30 06:16:19;;;;;;;21.23;10.65;;;11.20;99.90;;;;;;4994924;28;20173;-70
2023/05/30 06:18:45;;;;;;;23.10;10.00;;;11.30;99.90;;;;;;4993616;28;20683;-70
2023/05/30 06:21:11;;;;;;;17.20;9.23;;;11.30;99.90;;;;;;4994779;28;20196;-70
2023/05/30 06:23:37;;;;;;;21.35;9.77;;;11.40;99.90;;;;;;4995798;28;20185;-70
2023/05/30 06:26:03;;;;;;;21.58;10.10;;;11.40;99.90;;;;;;4994702;28;20268;-70
2023/05/30 06:28:28;;;;;;;21.40;10.55;;;11.40;99.90;;;;;;4994578;28;20212;-70
2023/05/30 06:30:54;;;;;;;18.05;10.32;;;11.50;99.90;;;;;;4994866;28;20267;-70
2023/05/30 06:33:20;;;;;;;18.53;10.77;;;11.50;99.90;;;;;;5009629;28;20208;-70
2023/05/30 06:35:47;;;;;;;28.10;10.52;;;11.50;99.90;;;;;;4988170;28;20195;-70
2023/05/30 06:38:13;;;;;;;19.17;10.55;;;11.50;99.90;;;;;;4994693;28;20180;-70
2023/05/30 06:40:38;;;;;;;19.90;10.57;;;11.50;99.90;;;;;;5009504;28;20204;-69
2023/05/30 06:43:04;;;;;;;20.83;9.30;;;11.60;99.90;;;;;;4994580;28;20188;-69
2023/05/30 06:45:30;;;;;;;18.27;10.00;;;11.60;99.90;;;;;;4994510;28;20180;-70
2023/05/30 06:47:56;;;;;;;19.83;9.93;;;11.60;99.90;;;;;;4994735;28;20177;-69
2023/05/30 06:50:22;;;;;;;21.67;9.87;;;11.60;99.90;;;;;;4994915;28;20202;-69
2023/05/30 06:52:48;;;;;;;20.20;10.30;;;11.70;99.90;;;;;;4994452;28;20200;-69
2023/05/30 06:55:15;;;;;;;19.45;9.30;;;11.60;99.90;;;;;;4994544;28;20180;-69
2023/05/30 06:57:43;;;;;;;16.92;8.70;;;11.80;99.90;;;;;;4992792;28;20200;-69
2023/05/30 07:00:10;;;;;;;20.17;10.48;;;11.80;99.90;;;;;;4994403;28;20207;-69
2023/05/30 07:02:35;;;;;;;21.13;10.55;;;11.90;99.90;;;;;;4994003;28;20641;-69
2023/05/30 07:05:01;;;;;;;18.07;9.40;;;12.00;99.90;;;;;;4989466;28;20204;-69
2023/05/30 07:07:27;;;;;;;20.60;10.23;;;12.00;99.90;;;;;;4994220;28;20183;-69
2023/05/30 07:09:53;;;;;;;19.25;9.98;;;12.00;99.90;;;;;;4994169;28;20207;-69
2023/05/30 07:12:19;;;;;;;25.13;9.90;;;12.10;99.90;;;;;;4993922;28;20200;-69
2023/05/30 07:14:45;;;;;;;16.92;9.13;;;12.10;99.90;;;;;;5009007;28;20187;-69
2023/05/30 07:17:10;;;;;;;18.60;8.85;;;12.10;99.90;;;;;;4992615;28;20184;-69
2023/05/30 07:19:36;;;;;;;17.75;9.00;;;12.20;99.90;;;;;;4992516;28;20275;-69
2023/05/30 07:22:02;;;;;;;17.27;9.63;;;12.30;99.90;;;;;;4994122;28;20177;-69
2023/05/30 07:24:28;;;;;;;15.35;9.15;;;12.30;99.90;;;;;;4994096;28;20184;-69
2023/05/30 07:26:53;;;;;;;21.05;8.88;;;12.30;99.90;;;;;;4994286;28;20199;-69
2023/05/30 07:29:19;;;;;;;19.45;9.20;;;12.40;99.90;;;;;;4993939;28;20180;-69
2023/05/30 07:31:45;;;;;;;20.02;9.52;;;12.30;99.90;;;;;;5008705;28;20411;-69
2023/05/30 07:34:11;;;;;;;17.73;8.98;;;12.30;99.90;;;;;;4993688;28;20168;-70
2023/05/30 07:36:37;;;;;;;21.58;9.75;;;12.40;99.90;;;;;;4989060;28;20192;-69
2023/05/30 07:39:02;;;;;;;17.60;9.48;;;12.30;99.90;;;;;;4992378;28;20180;-69
2023/05/30 07:41:28;;;;;;;17.00;9.88;;;12.30;99.90;;;;;;4992296;28;20199;-69
2023/05/30 07:43:54;;;;;;;18.17;10.02;;;12.30;99.90;;;;;;4993548;28;20684;-69
2023/05/30 07:46:20;;;;;;;20.83;9.63;;;12.30;99.90;;;;;;4992352;28;20181;-69
2023/05/30 07:48:46;;;;;;;22.63;10.73;;;12.40;99.90;;;;;;4996951;28;20660;-69
2023/05/30 07:51:12;;;;;;;15.75;10.13;;;12.40;99.90;;;;;;4997339;28;20232;-69
2023/05/30 07:53:38;;;;;;;22.08;10.10;;;12.50;99.90;;;;;;4997230;28;20231;-69
2023/05/30 07:56:04;;;;;;;17.70;9.73;;;12.50;99.90;;;;;;4997291;28;20185;-69
2023/05/30 07:58:30;;;;;;;18.65;9.98;;;12.60;99.90;;;;;;4997045;28;20748;-69
2023/05/30 08:00:55;;;;;;;21.45;10.25;;;12.70;99.90;;;;;;4997149;28;20266;-69
2023/05/30 08:03:21;;;;;;;20.75;10.38;;;13.00;99.90;;;;;;4997631;28;20184;-69
2023/05/30 08:05:50;;;;;;;23.05;10.48;;;13.20;99.90;;;;;;4992519;28;20192;-69
2023/05/30 08:08:17;;;;;;;16.50;9.35;;;13.40;99.90;;;;;;4995793;28;20204;-69
2023/05/30 08:10:42;;;;;;;22.27;10.60;;;13.40;99.90;;;;;;4995790;28;20204;-69
2023/05/30 08:13:08;;;;;;;26.08;10.13;;;13.30;99.90;;;;;;4996731;28;20541;-69
2023/05/30 08:15:34;;;;;;;13.95;9.00;;;13.30;99.90;;;;;;5011905;28;20183;-69
2023/05/30 08:18:00;;;;;;;19.05;9.80;;;13.40;99.90;;;;;;5012223;28;20176;-69
2023/05/30 08:20:26;;;;;;;23.38;9.15;;;13.60;99.90;;;;;;4996870;28;20200;-69
2023/05/30 08:22:52;;;;;;;21.30;9.60;;;13.90;99.90;;;;;;4997098;28;20563;-69
2023/05/30 08:25:28;;;;;;;23.25;9.32;;;14.10;99.90;;;;;;4995497;28;20191;-69
2023/05/30 08:27:58;;;;;;;15.77;9.10;;;14.30;99.90;;;;;;4996659;28;20156;-69
2023/05/30 08:30:24;;;;;;;16.55;8.85;;;14.50;99.90;;;;;;4996555;28;20279;-69
2023/05/30 08:32:50;;;;;;;16.17;9.52;;;14.80;99.90;;;;;;4996538;28;20287;-69
2023/05/30 08:35:15;;;;;;;17.80;8.68;;;14.90;99.90;;;;;;4992306;28;20181;-69
2023/05/30 08:37:42;;;;;;;19.40;8.73;;;14.70;99.90;;;;;;5011521;28;20188;-69
2023/05/30 08:40:12;;;;;;;21.73;9.23;;;14.50;99.90;;;;;;4996443;28;20208;-73
2023/05/30 08:42:39;;;;;;;20.60;9.05;;;14.50;99.90;;;;;;4997013;28;20645;-69
2023/05/30 08:45:06;;;;;;;18.75;9.38;;;14.80;99.90;;;;;;4995238;28;20239;-70
2023/05/30 08:47:33;;;;;;;17.95;9.00;;;14.60;99.90;;;;;;4996383;28;20180;-69
2023/05/30 08:50:03;;;;;;;20.30;9.07;;;14.40;99.90;;;;;;4995101;28;20231;-69
2023/05/30 08:52:31;;;;;;;18.33;9.30;;;14.40;99.90;;;;;;4997085;28;20616;-69
2023/05/30 08:55:21;;;;;;;22.40;9.52;;;14.10;99.90;;;;;;4995047;28;20624;-69
2023/05/30 08:57:51;;;;;;;18.20;9.30;;;14.00;99.90;;;;;;4995476;28;20695;-69
2023/05/30 09:00:18;;;;;;;21.67;10.07;;;14.00;99.90;;;;;;4996421;28;20200;-69
2023/05/30 09:02:44;;;;;;;16.35;9.05;;;13.90;99.90;;;;;;4996352;28;20173;-70
2023/05/30 09:05:15;;;;;;;18.15;8.98;;;14.20;99.90;;;;;;4991490;28;20193;-70
2023/05/30 09:07:43;;;;;;;17.40;8.63;;;14.70;99.90;;;;;;4996583;28;20240;-70
2023/05/30 09:10:10;;;;;;;17.50;9.35;;;15.30;99.90;;;;;;4994650;28;20211;-70
2023/05/30 09:12:36;;;;;;;18.77;9.52;;;15.80;1.00;;;;;;4995943;28;20200;-70
2023/05/30 09:15:01;;;;;;;18.92;9.77;;;16.10;99.90;;;;;;5010955;28;20180;-70
2023/05/30 09:17:27;;;;;;;20.55;8.55;;;16.40;99.90;;;;;;4995837;28;20256;-70
2023/05/30 09:19:53;;;;;;;19.55;8.88;;;16.70;99.90;;;;;;4995948;28;20671;-70
2023/05/30 09:22:20;;;;;;;19.17;8.75;;;16.90;99.90;;;;;;4996009;28;20196;-70
2023/05/30 09:25:02;;;;;;;18.30;8.73;;;17.10;99.90;;;;;;4995689;28;20180;-70
2023/05/30 09:27:30;;;;;;;18.67;10.00;;;17.20;1.00;;;;;;4995870;28;20193;-70
2023/05/30 09:29:56;;;;;;;22.65;9.30;;;17.20;73.60;;;;;;4995501;28;20196;-70
2023/05/30 09:32:34;;;;;;;16.40;9.25;;;17.10;99.90;;;;;;5010571;28;20684;-70
2023/05/30 09:35:04;;;;;;;21.15;8.75;;;17.20;99.90;;;;;;4991146;28;20181;-70
2023/05/30 09:37:38;;;;;;;20.27;9.50;;;17.10;1.00;;;;;;4994170;28;20176;-70
2023/05/30 09:40:10;;;;;;;18.23;8.50;;;16.80;1.00;;;;;;4994123;28;20196;-70
2023/05/30 09:42:47;;;;;;;14.80;9.15;;;17.10;99.90;;;;;;4994207;28;20552;-70
2023/05/30 09:45:15;;;;;;;18.90;8.90;;;17.30;99.90;;;;;;4995325;28;20535;-70
2023/05/30 09:47:49;;;;;;;17.50;8.82;;;17.20;99.90;;;;;;4995313;28;20180;-70
2023/05/30 09:50:20;;;;;;;14.55;8.35;;;17.40;99.90;;;;;;4995182;28;20188;-70
2023/05/30 09:52:49;;;;;;;19.55;9.43;;;17.50;1.00;;;;;;4995300;28;20290;-70
2023/05/30 09:55:16;;;;;;;19.95;8.40;;;17.20;99.90;;;;;;4995332;28;20177;-70
2023/05/30 09:57:47;;;;;;;18.48;8.77;;;17.40;1.00;;;;;;4994869;28;20184;-70
2023/05/30 10:00:16;;;;;;;18.67;8.20;;;17.60;99.90;;;;;;4993657;28;20232;-70
2023/05/30 10:02:53;;;;;;;16.73;8.27;;;17.80;99.90;;;;;;4994972;28;20288;-70
2023/05/30 10:05:30;;;;;;;15.80;9.10;;;18.00;99.90;;;;;;4989136;28;20195;-70
2023/05/30 10:07:57;;;;;;;15.88;9.10;;;18.00;1.00;;;;;;4993583;28;20676;-70
2023/05/30 10:10:24;;;;;;;17.58;8.63;;;18.10;99.90;;;;;;4994079;28;20649;-69
2023/05/30 10:12:52;;;;;;;20.05;8.52;;;18.10;21.30;;;;;;4994742;28;20192;-69
2023/05/30 10:15:19;;;;;;;17.42;8.93;;;17.90;1.00;;;;;;4994783;28;20250;-69
2023/05/30 10:17:55;;;;;;;16.27;8.52;;;17.80;1.00;;;;;;4993453;28;20264;-68
2023/05/30 10:20:24;;;;;;;18.27;8.77;;;17.70;99.90;;;;;;4994758;28;20288;-69
2023/05/30 10:22:54;;;;;;;18.15;8.90;;;17.80;1.00;;;;;;4994770;28;20177;-68
2023/05/30 10:25:21;;;;;;;16.50;9.65;;;17.60;1.00;;;;;;4994743;28;20176;-69
2023/05/30 10:27:56;;;;;;;22.85;8.27;;;17.40;1.00;;;;;;4994595;28;20538;-68
2023/05/30 10:30:25;;;;;;;17.50;8.80;;;17.40;99.90;;;;;;4994581;28;20192;-69
2023/05/30 10:33:02;;;;;;;14.73;8.80;;;17.50;1.00;;;;;;4994359;28;20259;-68
2023/05/30 10:35:29;;;;;;;19.15;9.18;;;17.70;1.00;;;;;;4989839;28;20187;-69
2023/05/30 10:37:56;;;;;;;18.17;9.65;;;17.60;99.90;;;;;;4994434;28;20179;-68
2023/05/30 10:40:44;;;;;;;15.43;7.82;;;17.50;1.00;;;;;;4994260;28;20220;-68
2023/05/30 10:43:25;;;;;;;17.02;9.88;;;17.60;1.00;;;;;;4994617;28;20681;-68
2023/05/30 10:46:06;;;;;;;17.42;9.32;;;17.50;99.90;;;;;;4994296;28;20211;-68
2023/05/30 10:48:44;;;;;;;19.23;8.75;;;17.30;1.00;;;;;;4994131;28;20176;-68
2023/05/30 10:51:13;;;;;;;15.65;8.70;;;17.40;99.90;;;;;;4992858;28;20255;-68
2023/05/30 10:53:42;;;;;;;13.70;8.63;;;17.60;99.90;;;;;;4994320;28;20197;-68
2023/05/30 10:56:41;;;;;;;17.10;8.85;;;17.60;99.90;;;;;;4993983;28;20219;-68
2023/05/30 10:59:18;;;;;;;14.80;7.90;;;17.60;99.90;;;;;;4940676;28;20596;-68
2023/05/30 11:02:01;;;;;;;15.93;8.32;;;17.80;1.00;;;;;;4994003;28;20199;-68
2023/05/30 11:04:42;;;;;;;18.33;8.55;;;17.80;99.90;;;;;;4993877;28;20164;-68
2023/05/30 11:07:11;;;;;;;14.93;7.75;;;18.00;99.90;;;;;;4990830;28;20246;-68
2023/05/30 11:09:41;;;;;;;16.05;8.57;;;18.00;99.90;;;;;;4992683;28;20206;-68
2023/05/30 11:12:08;;;;;;;17.23;8.73;;;18.20;1.00;;;;;;4992530;28;20203;-69
2023/05/30 11:14:39;;;;;;;14.32;9.48;;;18.40;99.90;;;;;;4993733;28;20585;-69
2023/05/30 11:17:06;;;;;;;12.15;7.75;;;18.50;99.90;;;;;;4992649;28;20536;-68
2023/05/30 11:19:47;;;;;;;18.13;8.93;;;18.40;99.90;;;;;;4992494;28;20173;-69
2023/05/30 11:22:13;;;;;;;14.95;7.63;;;18.40;1.00;;;;;;4996600;28;20645;-69
2023/05/30 11:24:43;;;;;;;15.88;7.60;;;18.50;99.90;;;;;;4996713;28;20222;-69
2023/05/30 11:27:16;;;;;;;18.63;8.77;;;18.50;99.90;;;;;;4998123;28;20255;-69
2023/05/30 11:29:56;;;;;;;14.20;8.10;;;18.60;99.90;;;;;;4997682;28;20169;-68
2023/05/30 11:32:28;;;;;;;15.13;7.57;;;18.60;1.00;;;;;;4998298;28;20195;-69
2023/05/30 11:34:58;;;;;;;12.63;7.13;;;18.80;1.00;;;;;;4993870;28;20259;-69
2023/05/30 11:37:25;;;;;;;19.23;7.43;;;19.00;99.90;;;;;;4973713;28;20205;-69
2023/05/30 11:39:55;;;;;;;14.40;7.70;;;19.10;1.00;;;;;;4958822;28;20637;-69
2023/05/30 11:42:21;;;;;;;15.52;7.47;;;19.40;1.00;;;;;;4958800;29;20178;-69
2023/05/30 11:44:47;;;;;;;16.85;7.68;;;19.40;1.00;;;;;;4957286;29;20558;-69
2023/05/30 11:47:15;;;;;;;12.73;7.18;;;19.50;99.90;;;;;;4958777;28;20177;-69
2023/05/30 11:49:45;;;;;;;11.95;7.03;;;19.60;1.00;;;;;;4958631;29;20236;-69
2023/05/30 11:52:12;;;;;;;12.50;5.97;;;19.40;92.40;;;;;;4957290;29;20212;-69
2023/05/30 11:54:39;;;;;;;12.77;6.10;;;19.70;1.00;;;;;;4973418;28;20555;-69
2023/05/30 11:57:08;;;;;;;11.50;6.07;;;19.80;99.90;;;;;;4958503;28;20228;-69
2023/05/30 11:59:34;;;;;;;12.35;6.93;;;20.00;99.90;;;;;;4957057;28;20269;-69
2023/05/30 12:02:01;;;;;;;12.50;6.63;;;19.90;99.90;;;;;;4958558;28;20261;-69
2023/05/30 12:04:29;;;;;;;17.63;7.35;;;19.80;99.90;;;;;;4958840;28;20201;-69
2023/05/30 12:07:01;;;;;;;17.33;7.10;;;19.80;99.90;;;;;;4992284;28;20207;-69
2023/05/30 12:09:28;;;;;;;16.73;6.18;;;19.50;99.80;;;;;;4997386;28;20565;-69
2023/05/30 12:11:58;;;;;;;9.45;5.50;;;19.60;1.00;;;;;;4997045;28;20539;-69
2023/05/30 12:14:37;;;;;;;12.38;6.18;;;19.90;99.90;;;;;;4995776;28;20173;-69
2023/05/30 12:17:14;;;;;;;13.55;6.38;;;20.30;99.90;;;;;;4995693;28;20239;-69
2023/05/30 12:19:44;;;;;;;10.30;5.47;;;20.40;7.00;;;;;;4995616;28;20383;-69
2023/05/30 12:22:17;;;;;;;12.32;5.95;;;20.60;1.00;;;;;;4997162;28;20255;-70
2023/05/30 12:24:44;;;;;;;10.63;5.68;;;20.80;1.00;;;;;;4996874;28;20168;-69
2023/05/30 12:27:20;;;;;;;13.38;6.32;;;20.70;1.00;;;;;;4996825;28;20168;-69
2023/05/30 12:29:45;;;;;;;12.70;5.82;;;20.90;1.00;;;;;;4996654;28;20207;-69
2023/05/30 12:32:11;;;;;;;12.85;6.55;;;20.70;1.00;;;;;;4996575;28;20193;-69
2023/05/30 12:34:45;;;;;;;11.45;6.10;;;20.80;1.00;;;;;;4992822;28;20247;-69
2023/05/30 12:37:13;;;;;;;13.98;6.32;;;21.00;1.00;;;;;;4995023;28;20239;-69
2023/05/30 12:40:02;;;;;;;16.15;6.80;;;21.00;1.00;;;;;;4996442;28;20194;-69
2023/05/30 12:42:31;;;;;;;13.43;5.85;;;21.00;1.00;;;;;;4996799;28;20167;-69
2023/05/30 12:45:02;;;;;;;9.55;6.05;;;21.10;99.90;;;;;;4996350;28;20200;-69